Flight Track Log - Related Links

Times and Time Zones

All times are in EDT time to prevent confusion due to time zone crossing. See the CSN6406 flight status page for this flight to view local times or setup timezone preferences in your user account.

Time Position Orientation Groundspeed Altitude Reporting Facility
EDT Latitude Longitude Course Direction KTS MPH feet Rate Location/Type
Sat 09:56:00 AM 36.1894 120.2901 222° Southwest  Level Estimated
Sat 09:57:00 AM 36.1125 120.2059 222° Southwest  Level Estimated
Sat 09:58:00 AM 36.0357 120.1219 221° Southwest  Level Estimated
Sat 09:59:00 AM 35.9587 120.0381 221° Southwest  Level Estimated
Sat 10:00:00 AM 35.8817 119.9544 221° Southwest  Level Estimated
Sat 10:01:00 AM 35.8047 119.8709 221° Southwest  Level Estimated
Sat 10:02:00 AM 35.7276 119.7875 221° Southwest  Level Estimated
Sat 10:03:00 AM 35.6504 119.7043 221° Southwest  Level Estimated
Sat 10:04:00 AM 35.5732 119.6213 221° Southwest  Level Estimated
Sat 10:05:00 AM 35.4959 119.5384 221° Southwest  Level Estimated
Sat 10:06:00 AM 35.4186 119.4557 221° Southwest  Level Estimated
Sat 10:07:00 AM 35.3412 119.3731 221° Southwest  Level Estimated
Sat 10:08:00 AM 35.2638 119.2907 221° Southwest  Level Estimated
Sat 10:09:00 AM 35.1863 119.2085 221° Southwest  Level Estimated
Sat 10:10:00 AM 35.1087 119.1264 221° Southwest  Level Estimated
Sat 10:11:00 AM 35.0311 119.0444 221° Southwest  Level Estimated
Sat 10:12:00 AM 34.9535 118.9627 221° Southwest  Level Estimated
Sat 10:13:00 AM 34.8758 118.8811 221° Southwest  Level Estimated
Sat 10:14:00 AM 34.7980 118.7996 221° Southwest  Level Estimated
Sat 10:15:00 AM 34.7201 118.7183 221° Southwest  Level Estimated
Sat 10:16:00 AM 34.6423 118.6371 221° Southwest  Level Estimated
Sat 10:17:00 AM 34.5643 118.5561 221° Southwest  Level Estimated
Sat 10:18:00 AM 34.4863 118.4753 221° Southwest  Level Estimated
Sat 10:19:00 AM 34.4083 118.3946 220° Southwest  Level Estimated
Sat 10:20:00 AM 34.3302 118.3140 220° Southwest  Level Estimated
Sat 10:21:00 AM 34.2520 118.2336 220° Southwest  Level Estimated
Sat 10:22:00 AM 34.1739 118.1534 220° Southwest  Level Estimated
Sat 10:23:00 AM 34.0956 118.0733 220° Southwest  Level Estimated
Sat 10:24:00 AM 34.0173 117.9933 220° Southwest  Level Estimated
Sat 10:25:00 AM 33.9389 117.9135 220° Southwest  Level Estimated
Sat 10:26:00 AM 33.8605 117.8338 220° Southwest  Level Estimated
Sat 10:27:00 AM 33.7821 117.7543 220° Southwest  Level Estimated
Sat 10:28:00 AM 33.7036 117.6749 220° Southwest  Level Estimated
Sat 10:29:00 AM 33.6250 117.5957 220° Southwest  Level Estimated
Sat 10:30:00 AM 33.5464 117.5166 220° Southwest  Level Estimated
Sat 10:31:00 AM 33.4677 117.4377 220° Southwest  Level Estimated
Sat 10:32:00 AM 33.3890 117.3589 220° Southwest  Level Estimated
Sat 10:33:00 AM 33.3103 117.2803 220° Southwest  Level Estimated
Sat 10:34:00 AM 33.2314 117.2018 220° Southwest  Level Estimated
Sat 10:35:00 AM 33.1526 117.1234 220° Southwest  Level Estimated
Sat 10:36:00 AM 33.0737 117.0452 220° Southwest  Level Estimated
Sat 10:37:00 AM 32.9947 116.9671 220° Southwest  Level Estimated
Sat 10:38:00 AM 32.9157 116.8891 220° Southwest  Level Estimated
Sat 10:39:00 AM 32.8367 116.8113 220° Southwest  Level Estimated
Sat 10:39:48 AM 34.4820 114.6720 220° Southwest 446 513 27,600  Level FlightAware ADS-B
Sat 10:40:00 AM 32.7576 116.7336 220° Southwest  Level Estimated
Sat 10:40:31 AM 34.3960 114.6640 184° South 446 513 27,600  Level FlightAware ADS-B
Sat 10:40:55 AM 34.3490 114.6590 185° South 446 513 27,600  Level FlightAware ADS-B
Sat 10:41:34 AM 34.2810 114.6520 185° South 446 513 27,600  Level FlightAware ADS-B
Sat 10:42:20 AM 34.2000 114.6430 185° South 446 513 27,600  Level FlightAware ADS-B
Sat 10:42:56 AM 34.1370 114.6370 185° South 446 513 27,600  Level FlightAware ADS-B
Sat 10:43:33 AM 34.0730 114.6300 185° South 446 513 27,600  Level FlightAware ADS-B
Sat 10:44:10 AM 34.0080 114.6230 185° South 446 513 27,600  Level FlightAware ADS-B
Sat 10:44:46 AM 33.9450 114.6160 185° South 446 513 27,600  Level FlightAware ADS-B
Sat 10:47:00 AM 33.7385 114.4966 206° Southwest  Level Estimated
Sat 10:48:00 AM 33.6460 114.4434 206° Southwest  Level Estimated
Sat 10:49:00 AM 33.5535 114.3902 206° Southwest  Level Estimated
Sat 10:50:00 AM 33.4609 114.3372 206° Southwest  Level Estimated
Sat 10:51:00 AM 33.3684 114.2842 206° Southwest  Level Estimated
Sat 10:52:00 AM 33.2758 114.2314 205° Southwest  Level Estimated
Sat 10:53:00 AM 33.1832 114.1787 205° Southwest  Level Estimated
Sat 10:54:00 AM 33.0906 114.1261 205° Southwest  Level Estimated
Sat 10:55:00 AM 32.9979 114.0736 205° Southwest  Level Estimated
Sat 10:56:00 AM 32.9052 114.0213 205° Southwest  Level Estimated
Sat 10:57:00 AM 32.8125 113.9690 205° Southwest  Level Estimated
Sat 10:58:00 AM 32.7198 113.9169 205° Southwest  Level Estimated
Sat 10:59:00 AM 32.6271 113.8648 205° Southwest  Level Estimated
Sat 11:00:00 AM 32.5343 113.8129 205° Southwest  Level Estimated
Sat 11:01:00 AM 32.4415 113.7611 205° Southwest  Level Estimated
Sat 11:02:00 AM 32.3487 113.7093 205° Southwest  Level Estimated
Sat 11:03:00 AM 32.2559 113.6577 205° Southwest  Level Estimated
Sat 11:04:00 AM 32.1631 113.6062 205° Southwest  Level Estimated
Sat 11:05:00 AM 32.0702 113.5548 205° Southwest  Level Estimated
Sat 11:06:00 AM 31.9773 113.5035 205° Southwest  Level Estimated
Sat 11:07:00 AM 31.8844 113.4523 205° Southwest  Level Estimated
Sat 11:08:00 AM 31.7915 113.4012 205° Southwest  Level Estimated
Sat 11:09:00 AM 31.6985 113.3502 205° Southwest  Level Estimated
Sat 11:10:00 AM 31.6056 113.2993 205° Southwest  Level Estimated
Sat 11:11:00 AM 31.5126 113.2486 205° Southwest  Level Estimated
Sat 11:12:00 AM 31.4195 113.1979 205° Southwest  Level Estimated
Sat 11:13:00 AM 31.3265 113.1473 205° Southwest  Level Estimated
Sat 11:14:00 AM 31.2335 113.0968 205° Southwest  Level Estimated
Sat 11:15:00 AM 31.1404 113.0464 205° Southwest  Level Estimated
Sat 11:16:00 AM 31.0473 112.9961 205° Southwest  Level Estimated
Sat 11:17:00 AM 30.9542 112.9459 205° Southwest  Level Estimated
Sat 11:18:00 AM 30.8611 112.8958 205° Southwest  Level Estimated
Sat 11:19:00 AM 30.7679 112.8458 205° Southwest  Level Estimated
Sat 11:20:00 AM 30.6748 112.7959 205° Southwest  Level Estimated
Sat 11:21:00 AM 30.5816 112.7461 205° Southwest  Level Estimated
Sat 11:22:00 AM 30.4884 112.6964 205° Southwest  Level Estimated
Sat 11:23:00 AM 30.3952 112.6468 205° Southwest  Level Estimated
Sat 11:24:00 AM 30.3019 112.5973 205° Southwest  Level Estimated
Sat 11:25:00 AM 30.2087 112.5479 205° Southwest  Level Estimated
Sat 11:26:00 AM 30.1154 112.4985 205° Southwest  Level Estimated
Sat 11:27:00 AM 30.0221 112.4493 205° Southwest  Level Estimated
Sat 11:28:00 AM 29.9288 112.4002 205° Southwest  Level Estimated
Sat 11:29:00 AM 29.8354 112.3511 205° Southwest  Level Estimated
Sat 11:30:00 AM 29.7421 112.3021 204° Southwest  Level Estimated
Sat 11:31:00 AM 29.6487 112.2533 204° Southwest  Level Estimated
Sat 11:32:00 AM 29.5553 112.2045 204° Southwest  Level Estimated
Sat 11:33:00 AM 29.4619 112.1558 204° Southwest  Level Estimated
Sat 11:34:00 AM 29.3685 112.1072 204° Southwest  Level Estimated
Sat 11:35:00 AM 29.2751 112.0587 204° Southwest  Level Estimated
Sat 11:36:00 AM 29.1816 112.0103 204° Southwest  Level Estimated
Sat 11:37:00 AM 29.0881 111.9620 204° Southwest  Level Estimated
Sat 11:38:00 AM 28.9946 111.9137 204° Southwest  Level Estimated
Sat 11:39:00 AM 28.9011 111.8655 204° Southwest  Level Estimated
Sat 11:40:00 AM 28.8076 111.8175 204° Southwest  Level Estimated
Sat 11:41:00 AM 28.7141 111.7695 204° Southwest  Level Estimated
Sat 11:42:00 AM 28.6205 111.7216 204° Southwest  Level Estimated
Sat 11:43:00 AM 28.5269 111.6738 204° Southwest  Level Estimated
Sat 11:44:00 AM 28.4333 111.6261 204° Southwest  Level Estimated
Sat 11:45:00 AM 28.3397 111.5784 204° Southwest  Level Estimated
Sat 11:46:00 AM 28.2461 111.5309 204° Southwest  Level Estimated
Sat 11:47:00 AM 28.1525 111.4834 204° Southwest  Level Estimated
Sat 11:48:00 AM 28.0588 111.4360 204° Southwest  Level Estimated
Sat 11:49:00 AM 27.9651 111.3887 204° Southwest  Level Estimated
Sat 11:50:00 AM 27.8714 111.3415 204° Southwest  Level Estimated
Sat 11:51:00 AM 27.7777 111.2943 204° Southwest  Level Estimated
Sat 11:52:00 AM 27.6840 111.2472 204° Southwest  Level Estimated
Sat 11:53:00 AM 27.5903 111.2002 204° Southwest  Level Estimated
Sat 11:54:00 AM 27.4965 111.1533 204° Southwest  Level Estimated
Sat 11:55:00 AM 27.4027 111.1065 204° Southwest  Level Estimated
Sat 11:56:00 AM 27.3089 111.0598 204° Southwest  Level Estimated
Sat 11:57:00 AM 27.2151 111.0131 204° Southwest  Level Estimated
Sat 11:58:00 AM 27.1213 110.9665 204° Southwest  Level Estimated
Sat 11:59:00 AM 27.0275 110.9200 204° Southwest  Level Estimated
Sat 12:00:00 PM 26.9336 110.8736 204° Southwest  Level Estimated
Sat 12:01:00 PM 26.8398 110.8272 204° Southwest  Level Estimated
Sat 12:02:00 PM 26.7459 110.7809 204° Southwest  Level Estimated
Sat 12:03:00 PM 26.6520 110.7347 204° Southwest  Level Estimated
Sat 12:04:00 PM 26.5581 110.6886 204° Southwest  Level Estimated
Sat 12:05:00 PM 26.4642 110.6425 204° Southwest  Level Estimated
Sat 12:06:00 PM 26.3702 110.5966 204° Southwest  Level Estimated
Sat 12:07:00 PM 26.2763 110.5507 204° Southwest  Level Estimated
Sat 12:08:00 PM 26.1823 110.5048 204° Southwest  Level Estimated
Sat 12:09:00 PM 26.0883 110.4591 204° Southwest  Level Estimated
Sat 12:10:00 PM 25.9943 110.4134 204° Southwest  Level Estimated
Sat 12:11:00 PM 25.9003 110.3678 204° Southwest  Level Estimated
Sat 12:12:00 PM 25.8063 110.3223 204° Southwest  Level Estimated
Sat 12:13:00 PM 25.7123 110.2768 204° Southwest  Level Estimated
Sat 12:14:00 PM 25.6182 110.2314 204° Southwest  Level Estimated
Sat 12:15:00 PM 25.5241 110.1861 203° Southwest  Level Estimated
Sat 12:16:00 PM 25.4301 110.1408 203° Southwest  Level Estimated
Sat 12:17:00 PM 25.3360 110.0957 203° Southwest  Level Estimated
Sat 12:18:00 PM 25.2418 110.0506 203° Southwest  Level Estimated
Sat 12:19:00 PM 25.2181 110.0392 203° Southwest  Level Estimated
Sat 12:20:00 PM 25.2181 110.0392 214° Southwest  Level Estimated
Sat 12:21:00 PM 25.2181 110.0392 214° Southwest  Level Estimated
Sat 12:22:00 PM 25.2181 110.0392 214° Southwest  Level Estimated
Sat 12:23:00 PM 25.2181 110.0392 214° Southwest  Level Estimated
Sat 12:24:00 PM 25.2181 110.0392 214° Southwest  Level Estimated
Sat 12:25:00 PM 25.2181 110.0392 214° Southwest  Level Estimated
Sat 12:26:00 PM 25.2181 110.0392 214° Southwest  Level Estimated
Sat 12:27:00 PM 25.2181 110.0392 214° Southwest  Level Estimated
Sat 12:28:00 PM 25.2181 110.0392 214° Southwest  Level Estimated

Login

Don't have an account? Register now (free) for customized features, flight alerts, and more!